Time;durP1;ratioP1;P1;durP2;ratioP2;P2;SDS_P1;SDS_P2;PMS_P1;PMS_P2;Temp;Humidity;BMP_temperature;BMP_pressure;BME280_temperature;BME280_humidity;BME280_pressure;Samples;Min_cycle;Max_cycle;Signal;HPM_P1;HPM_P2
2022/05/23 00:01:19;;;;;;;2.30;2.10;;;;;;;16.83;66.08;99326.66;5034424;28;20231;-60
2022/05/23 00:03:45;;;;;;;3.67;1.97;;;;;;;16.85;66.25;99335.09;5036633;28;20174;-60
2022/05/23 00:06:14;;;;;;;3.63;2.27;;;;;;;16.95;66.80;99335.09;5031613;28;20249;-60
2022/05/23 00:08:40;;;;;;;4.37;2.30;;;;;;;16.96;65.90;99333.31;5030380;28;20206;-60
2022/05/23 00:11:05;;;;;;;2.63;2.23;;;;;;;16.97;66.21;99321.94;5042138;28;20324;-60
2022/05/23 00:13:30;;;;;;;6.20;2.57;;;;;;;16.92;66.32;99325.00;5054105;28;20524;-60
2022/05/23 00:15:57;;;;;;;3.07;2.43;;;;;;;16.90;66.89;99321.69;5051672;28;20263;-61
2022/05/23 00:18:22;;;;;;;4.30;2.33;;;;;;;16.87;66.96;99320.19;5049273;28;20313;-61
2022/05/23 00:20:48;;;;;;;5.00;2.60;;;;;;;16.84;66.93;99319.66;5046399;28;20303;-60
2022/05/23 00:23:13;;;;;;;3.47;2.30;;;;;;;16.83;67.16;99320.63;5060516;28;20250;-60
2022/05/23 00:25:39;;;;;;;6.80;3.33;;;;;;;16.81;66.71;99309.53;5049516;28;20177;-60
2022/05/23 00:28:04;;;;;;;2.97;2.40;;;;;;;16.84;66.96;99314.47;5046165;28;20186;-60
2022/05/23 00:30:30;;;;;;;4.07;2.47;;;;;;;16.86;67.34;99302.97;5037700;28;20578;-60
2022/05/23 00:35:44;;;;;;;3.97;2.47;;;;;;;16.80;67.39;99297.53;5030532;28;20204;-60
2022/05/23 00:38:09;;;;;;;4.63;2.73;;;;;;;16.81;67.53;99301.75;5029310;28;20174;-60
2022/05/23 00:44:11;;;;;;;2.77;2.40;;;;;;;16.74;67.61;99288.53;5015641;28;20193;-62
2022/05/23 00:46:53;;;;;;;3.63;2.67;;;;;;;16.84;67.36;99283.28;5032678;28;20174;-61
2022/05/23 00:49:28;;;;;;;4.10;2.10;;;;;;;16.89;67.36;99274.13;5046371;28;20199;-61
2022/05/23 00:51:56;;;;;;;4.53;2.53;;;;;;;16.82;67.95;99273.06;5057700;28;20223;-60
2022/05/23 00:54:23;;;;;;;7.17;2.33;;;;;;;16.74;67.57;99267.75;5059754;28;20193;-60
2022/05/23 00:56:52;;;;;;;2.40;2.17;;;;;;;16.75;67.94;99256.41;5051056;28;20328;-60
2022/05/23 00:59:28;;;;;;;2.80;2.10;;;;;;;16.62;68.47;99254.97;5029417;28;20181;-61
2022/05/23 01:01:54;;;;;;;3.90;2.50;;;;;;;16.74;68.45;99252.19;5049701;28;20232;-59
2022/05/23 01:04:19;;;;;;;5.43;2.67;;;;;;;16.69;68.89;99250.00;5030262;28;20232;-61
2022/05/23 01:06:45;;;;;;;4.47;2.30;;;;;;;16.63;68.95;99247.97;5031999;28;20248;-59
2022/05/23 01:09:10;;;;;;;2.87;2.57;;;;;;;16.56;69.08;99246.91;5030203;28;20210;-60
2022/05/23 01:11:37;;;;;;;2.73;2.00;;;;;;;16.47;70.24;99238.22;5044801;28;20742;-61
2022/05/23 01:14:03;;;;;;;3.47;2.43;;;;;;;16.46;69.96;99245.19;5044093;28;20577;-59
2022/05/23 01:16:29;;;;;;;3.77;2.60;;;;;;;16.39;70.79;99230.34;5002471;28;1310840;-60
2022/05/23 01:18:54;;;;;;;6.50;2.70;;;;;;;16.38;71.16;99224.31;5051030;28;20193;-59
2022/05/23 01:21:34;;;;;;;4.33;2.63;;;;;;;16.32;71.14;99226.66;5049713;28;20220;-60
2022/05/23 01:24:18;;;;;;;3.60;2.20;;;;;;;16.17;72.31;99223.72;5044117;28;20174;-60
2022/05/23 01:26:43;;;;;;;3.63;2.27;;;;;;;16.06;72.67;99217.75;5030774;28;20264;-61
2022/05/23 01:29:15;;;;;;;3.00;2.10;;;;;;;16.05;72.71;99216.09;5031268;28;20267;-61
2022/05/23 01:31:42;;;;;;;2.97;2.40;;;;;;;16.03;73.11;99220.59;5035749;28;20228;-61
2022/05/23 01:34:08;;;;;;;3.47;2.43;;;;;;;16.02;73.38;99207.78;5035843;28;20232;-60
2022/05/23 01:36:34;;;;;;;3.27;2.23;;;;;;;16.01;73.19;99201.75;5045839;28;20217;-60
2022/05/23 01:39:00;;;;;;;4.27;2.57;;;;;;;15.96;73.49;99204.81;5029767;28;20178;-60
2022/05/23 01:41:26;;;;;;;2.93;2.27;;;;;;;15.96;73.61;99199.63;5037294;28;20254;-68
2022/05/23 01:43:53;;;;;;;3.63;2.27;;;;;;;16.00;73.89;99194.13;5034707;28;20197;-61
2022/05/23 01:46:19;;;;;;;3.23;2.00;;;;;;;16.00;73.83;99192.38;5030435;28;20544;-60
2022/05/23 01:48:44;;;;;;;3.83;2.40;;;;;;;15.94;73.69;99183.38;5029334;28;20324;-60
2022/05/23 01:51:09;;;;;;;4.30;2.50;;;;;;;15.93;73.82;99171.34;5039330;28;20320;-61
2022/05/23 01:53:35;;;;;;;2.73;2.20;;;;;;;15.93;73.86;99176.53;5055642;28;20543;-60
2022/05/23 01:56:04;;;;;;;5.63;2.40;;;;;;;15.81;74.36;99169.84;5050492;28;20201;-61
2022/05/23 02:01:14;;;;;;;3.97;2.20;;;;;;;15.77;74.74;99164.13;5039963;28;20702;-60
2022/05/23 02:03:44;;;;;;;5.80;2.30;;;;;;;15.73;75.59;99167.16;5052458;28;20178;-61
2022/05/23 02:06:10;;;;;;;4.87;2.53;;;;;;;15.75;75.09;99160.88;5030281;28;20719;-60
2022/05/23 02:08:36;;;;;;;4.90;2.63;;;;;;;15.78;74.21;99158.00;5030821;28;20187;-60
2022/05/23 02:11:03;;;;;;;3.83;2.23;;;;;;;15.78;74.32;99163.16;5036138;28;20555;-61
2022/05/23 02:13:31;;;;;;;7.13;2.20;;;;;;;15.77;74.14;99171.09;5059045;28;20184;-59
2022/05/23 02:15:57;;;;;;;3.87;2.23;;;;;;;15.84;74.39;99176.56;5047347;28;20299;-61
2022/05/23 02:18:22;;;;;;;3.47;2.17;;;;;;;15.84;73.57;99167.03;5033638;28;20689;-60
2022/05/23 02:20:47;;;;;;;3.43;2.20;;;;;;;15.92;73.27;99168.91;5044877;28;20227;-60
2022/05/23 02:23:13;;;;;;;3.57;2.10;;;;;;;15.88;72.33;99165.78;5063684;28;20201;-60
2022/05/23 02:25:39;;;;;;;2.50;2.10;;;;;;;15.90;72.50;99160.44;5053831;28;20192;-60
2022/05/23 02:28:04;;;;;;;4.97;2.40;;;;;;;15.93;72.34;99160.16;5053405;28;20283;-60
2022/05/23 02:30:29;;;;;;;3.67;2.33;;;;;;;15.93;72.17;99149.78;5040695;28;20304;-60
2022/05/23 02:32:54;;;;;;;2.97;2.37;;;;;;;15.87;71.77;99145.19;5058627;28;20206;-60
2022/05/23 02:35:20;;;;;;;6.63;2.37;;;;;;;15.90;71.43;99137.94;5033895;28;20205;-60
2022/05/23 02:37:46;;;;;;;3.30;2.40;;;;;;;15.88;71.87;99139.84;5033360;28;20243;-60
2022/05/23 02:40:12;;;;;;;4.53;2.43;;;;;;;15.84;72.07;99132.47;5023559;28;20178;-61
2022/05/23 02:42:37;;;;;;;2.90;2.07;;;;;;;15.91;71.15;99125.78;5012674;28;20175;-59
2022/05/23 02:45:06;;;;;;;4.27;2.20;;;;;;;15.88;71.22;99133.84;5013845;28;20579;-59
2022/05/23 02:47:32;;;;;;;3.20;2.17;;;;;;;15.83;71.74;99121.31;5028812;28;20182;-61
2022/05/23 02:49:58;;;;;;;9.90;2.57;;;;;;;15.89;70.70;99119.91;5026082;28;20182;-60
2022/05/23 02:52:23;;;;;;;2.43;2.20;;;;;;;15.92;71.16;99124.81;5073003;28;20584;-60
2022/05/23 02:54:49;;;;;;;4.07;2.43;;;;;;;15.98;71.15;99117.28;5053578;28;20173;-60
2022/05/23 02:57:14;;;;;;;3.73;2.17;;;;;;;15.99;70.01;99123.28;5053002;28;20177;-61
2022/05/23 02:59:40;;;;;;;2.87;2.57;;;;;;;16.00;69.79;99109.38;5053129;28;20181;-60
2022/05/23 03:04:49;;;;;;;5.60;2.67;;;;;;;16.03;69.33;99110.88;5047574;28;20179;-60
2022/05/23 03:07:14;;;;;;;3.27;2.57;;;;;;;16.05;68.42;99111.50;5052882;28;20181;-60
2022/05/23 03:09:40;;;;;;;3.27;2.43;;;;;;;16.03;68.85;99114.25;5053109;28;20253;-60
2022/05/23 03:12:06;;;;;;;4.47;2.50;;;;;;;15.97;68.84;99115.63;5075503;28;20224;-60
2022/05/23 03:14:31;;;;;;;4.10;1.87;;;;;;;16.01;68.76;99107.59;5068599;28;20211;-61
2022/05/23 03:17:01;;;;;;;6.00;2.33;;;;;;;15.92;69.27;99104.06;5056737;28;20706;-61
2022/05/23 03:19:26;;;;;;;5.53;2.90;;;;;;;15.95;68.73;99103.78;5068223;28;20543;-67
2022/05/23 03:27:19;;;;;;;5.93;2.50;;;;;;;16.01;68.19;99131.72;5051539;28;20180;-60
2022/05/23 03:29:44;;;;;;;3.53;2.17;;;;;;;16.03;67.98;99131.63;5052860;28;20169;-60
2022/05/23 03:32:09;;;;;;;7.67;2.37;;;;;;;16.22;67.56;99139.28;5037261;28;20252;-60
2022/05/23 03:34:35;;;;;;;5.80;2.50;;;;;;;16.40;67.07;99146.34;5052871;28;20172;-60
2022/05/23 03:37:00;;;;;;;2.67;2.23;;;;;;;16.46;67.80;99151.75;5052075;28;20219;-60
2022/05/23 03:39:25;;;;;;;3.60;2.60;;;;;;;16.56;66.93;99156.06;5052687;28;20730;-60
2022/05/23 03:41:52;;;;;;;2.77;2.23;;;;;;;16.73;67.51;99163.09;5065510;28;20305;-64
2022/05/23 03:44:18;;;;;;;7.13;2.90;;;;;;;16.57;67.63;99181.06;5033892;28;20182;-64
2022/05/23 03:46:43;;;;;;;4.07;2.47;;;;;;;16.63;68.16;99188.25;5036718;28;20199;-63
2022/05/23 03:49:08;;;;;;;5.60;2.90;;;;;;;16.62;70.46;99182.28;5043330;28;20265;-63
2022/05/23 03:51:34;;;;;;;7.37;2.50;;;;;;;16.59;66.92;99192.94;5066327;28;20219;-63
2022/05/23 03:53:59;;;;;;;4.50;2.23;;;;;;;16.58;69.25;99196.50;5060004;28;20201;-63
2022/05/23 03:56:25;;;;;;;2.50;2.30;;;;;;;16.38;70.97;99210.53;5051675;28;20288;-63
2022/05/23 03:58:50;;;;;;;5.33;2.93;;;;;;;16.16;73.79;99206.50;5047477;28;20771;-62
2022/05/23 04:01:18;;;;;;;2.87;2.47;;;;;;;15.93;71.13;99199.88;5060122;28;20232;-63
2022/05/23 04:03:44;;;;;;;4.13;2.43;;;;;;;16.11;75.39;99196.53;5063512;28;20180;-63
2022/05/23 04:06:09;;;;;;;4.00;2.50;;;;;;;16.22;73.01;99187.78;5051279;28;20189;-62
2022/05/23 04:08:35;;;;;;;2.60;2.40;;;;;;;16.40;73.22;99182.66;5051980;28;20571;-62
2022/05/23 04:11:02;;;;;;;3.20;2.40;;;;;;;16.36;72.93;99189.91;5057071;28;20338;-63
2022/05/23 04:13:28;;;;;;;3.33;2.83;;;;;;;16.30;75.00;99182.72;5058299;28;20484;-63
2022/05/23 04:15:53;;;;;;;2.60;2.30;;;;;;;16.47;76.85;99199.28;5042018;28;20201;-63
2022/05/23 04:18:19;;;;;;;4.90;2.20;;;;;;;16.50;75.75;99203.38;5031075;28;20225;-63
2022/05/23 04:20:44;;;;;;;5.33;2.67;;;;;;;16.39;74.89;99205.19;5045325;28;20236;-64
2022/05/23 04:23:10;;;;;;;3.80;2.67;;;;;;;16.31;73.55;99205.09;5067250;28;20244;-64
2022/05/23 04:25:43;;;;;;;4.80;2.90;;;;;;;16.38;72.96;99205.34;5051393;28;20260;-62
2022/05/23 04:28:10;;;;;;;5.67;2.33;;;;;;;16.34;71.87;99197.03;5051065;28;20185;-63
2022/05/23 04:30:36;;;;;;;3.50;2.23;;;;;;;16.48;72.12;99211.28;5023305;28;20240;-63
2022/05/23 04:35:48;;;;;;;2.30;2.10;;;;;;;16.62;70.53;99203.03;5031401;28;20240;-64
2022/05/23 04:38:14;;;;;;;4.13;2.77;;;;;;;16.60;70.04;99199.75;5030814;28;20693;-63
2022/05/23 04:40:40;;;;;;;4.37;2.20;;;;;;;16.58;69.67;99195.69;5031489;28;20307;-62
2022/05/23 04:43:05;;;;;;;4.53;2.57;;;;;;;16.51;69.77;99166.91;5053044;28;20261;-62
2022/05/23 04:45:31;;;;;;;5.67;2.50;;;;;;;16.52;68.86;99175.50;5045919;28;20272;-63
2022/05/23 04:50:40;;;;;;;5.37;2.93;;;;;;;16.55;69.41;99157.84;5041544;28;20235;-63
2022/05/23 04:53:06;;;;;;;5.83;2.57;;;;;;;16.66;68.50;99148.22;5061926;28;20174;-63
2022/05/23 04:55:33;;;;;;;3.73;2.77;;;;;;;16.58;67.99;99133.38;5049610;28;20197;-64
2022/05/23 04:57:59;;;;;;;6.50;3.37;;;;;;;16.44;68.38;99129.50;5049182;28;20644;-63
2022/05/23 05:00:26;;;;;;;5.17;2.80;;;;;;;16.31;68.85;99116.88;5042268;28;20228;-64
2022/05/23 05:02:52;;;;;;;5.50;2.77;;;;;;;16.17;70.23;99117.34;5056559;28;20189;-65
2022/05/23 05:05:18;;;;;;;3.80;2.77;;;;;;;15.82;73.45;99119.66;5049192;28;20557;-64
2022/05/23 05:07:44;;;;;;;3.90;2.93;;;;;;;15.51;79.23;99119.03;5045664;28;20182;-63
2022/05/23 05:10:09;;;;;;;9.40;3.10;;;;;;;15.52;79.25;99118.06;5022500;28;20177;-63
2022/05/23 05:12:35;;;;;;;9.90;3.10;;;;;;;15.55;82.32;99113.41;5060883;28;20618;-64
2022/05/23 05:15:00;;;;;;;7.83;3.60;;;;;;;15.43;83.61;99102.41;5050294;28;20736;-63
2022/05/23 05:17:27;;;;;;;4.17;2.90;;;;;;;15.26;88.53;99103.13;5048756;28;20278;-68
2022/05/23 05:19:53;;;;;;;4.70;3.30;;;;;;;15.04;91.25;99084.31;5049745;28;20600;-64
2022/05/23 05:22:18;;;;;;;4.50;3.20;;;;;;;14.79;93.96;99072.75;5038866;28;20228;-64
2022/05/23 05:24:44;;;;;;;5.10;3.50;;;;;;;14.55;97.43;99067.91;5038257;28;20184;-65
2022/05/23 05:27:11;;;;;;;7.50;3.70;;;;;;;14.32;100.00;99056.03;5033963;28;20228;-64
2022/05/23 05:29:36;;;;;;;7.90;3.80;;;;;;;14.11;100.00;99044.97;5048493;28;20189;-64
2022/05/23 05:32:15;;;;;;;6.23;4.43;;;;;;;13.85;100.00;99004.91;5025243;28;20209;-65
2022/05/23 05:35:40;;;;;;;8.77;4.67;;;;;;;13.61;100.00;98925.13;5012645;28;20626;-64
2022/05/23 05:38:36;;;;;;;11.10;5.70;;;;;;;13.52;100.00;98861.31;4932897;29;20928;-64
2022/05/23 05:41:09;;;;;;;7.30;5.30;;;;;;;13.39;100.00;98830.56;4871188;29;20242;-64
2022/05/23 05:43:44;;;;;;;7.73;5.13;;;;;;;13.23;100.00;98877.53;4914490;29;20194;-61
2022/05/23 05:46:27;;;;;;;7.93;4.90;;;;;;;13.15;100.00;98919.50;4898008;29;20284;-63
2022/05/23 05:48:56;;;;;;;7.60;5.47;;;;;;;13.25;100.00;98919.53;4900332;29;20233;-63
2022/05/23 05:51:24;;;;;;;7.07;5.17;;;;;;;13.28;100.00;98919.28;4888456;29;20673;-65
2022/05/23 05:53:50;;;;;;;6.00;5.10;;;;;;;13.28;100.00;98921.03;4899916;29;20210;-63
2022/05/23 05:56:16;;;;;;;5.37;4.87;;;;;;;13.21;100.00;98906.06;4898841;29;20225;-63
2022/05/23 05:58:41;;;;;;;9.50;5.33;;;;;;;13.28;100.00;98911.53;4893583;29;20274;-62
2022/05/23 06:01:07;;;;;;;6.77;5.93;;;;;;;13.46;100.00;98908.34;4907587;29;20233;-63
2022/05/23 06:03:33;;;;;;;8.13;5.10;;;;;;;13.72;100.00;98895.78;4915598;29;20186;-59
2022/05/23 06:11:27;;;;;;;8.87;4.87;;;;;;;14.18;100.00;98891.72;4981487;28;20245;-61
2022/05/23 06:13:58;;;;;;;6.87;5.30;;;;;;;14.31;100.00;98881.13;4990854;28;20191;-60
2022/05/23 06:16:25;;;;;;;8.03;4.97;;;;;;;14.45;100.00;98873.84;4970001;28;20218;-60
2022/05/23 06:18:50;;;;;;;7.00;4.97;;;;;;;14.71;100.00;98875.88;5048659;28;20753;-59
2022/05/23 06:21:16;;;;;;;5.73;5.20;;;;;;;14.98;100.00;98875.13;5053521;28;20229;-61
2022/05/23 06:23:46;;;;;;;8.53;4.63;;;;;;;15.13;100.00;98885.81;5059793;28;20272;-61
2022/05/23 06:26:11;;;;;;;6.33;4.60;;;;;;;15.40;100.00;98879.03;5052560;28;20273;-61
2022/05/23 06:28:37;;;;;;;7.13;4.27;;;;;;;15.86;100.00;98895.41;5052957;28;20607;-63
2022/05/23 06:31:02;;;;;;;5.03;4.53;;;;;;;16.76;97.84;98895.31;5051578;28;20224;-61
2022/05/23 06:33:28;;;;;;;7.03;4.50;;;;;;;17.43;88.47;98907.66;5055143;28;20178;-61
2022/05/23 06:35:54;;;;;;;6.93;4.27;;;;;;;19.06;81.28;98906.28;5034934;28;20610;-62
2022/05/23 06:38:20;;;;;;;4.20;3.80;;;;;;;20.89;66.66;98899.69;5053366;28;20192;-61
2022/05/23 06:40:52;;;;;;;5.57;3.90;;;;;;;20.99;62.13;98894.22;5048618;28;20228;-61
2022/05/23 06:43:19;;;;;;;4.13;3.53;;;;;;;21.93;57.28;98890.06;5079341;28;20666;-62
2022/05/23 06:45:45;;;;;;;4.47;3.07;;;;;;;21.45;57.51;98893.94;5053455;28;20182;-62
2022/05/23 06:48:12;;;;;;;7.07;2.90;;;;;;;21.93;55.27;98901.34;5051862;28;20243;-62
2022/05/23 06:50:37;;;;;;;4.80;3.30;;;;;;;22.30;54.99;98897.81;5053425;28;20246;-63
2022/05/23 06:53:02;;;;;;;5.23;3.00;;;;;;;23.11;51.82;98891.28;5076232;28;20173;-62
2022/05/23 06:55:27;;;;;;;4.73;3.33;;;;;;;22.55;50.70;98900.84;5053456;28;20205;-62
2022/05/23 06:57:53;;;;;;;4.13;3.17;;;;;;;22.51;52.53;98910.94;5053147;28;20224;-63
2022/05/23 07:00:18;;;;;;;3.60;3.07;;;;;;;22.48;50.83;98908.66;5032701;28;20177;-62
2022/05/23 07:02:44;;;;;;;3.90;3.10;;;;;;;22.28;51.83;98905.88;5052107;28;20359;-63
2022/05/23 07:13:21;;;;;;;4.80;2.90;;;;;;;25.23;44.06;98921.56;5057092;28;20188;-60
2022/05/23 07:15:47;;;;;;;3.90;2.85;;;;;;;25.23;44.37;98932.91;5048087;28;20248;-62
2022/05/23 07:18:19;;;;;;;5.65;3.65;;;;;;;25.20;42.38;98935.94;5062081;28;20767;-61
2022/05/23 07:20:45;;;;;;;5.32;3.03;;;;;;;25.59;43.59;98936.03;5045935;28;20224;-61
2022/05/23 07:23:12;;;;;;;5.18;2.92;;;;;;;26.31;40.71;98940.25;5042280;28;20189;-62
2022/05/23 07:25:38;;;;;;;4.85;3.08;;;;;;;27.60;39.67;98950.13;5042433;28;20209;-63
2022/05/23 07:28:04;;;;;;;4.75;2.72;;;;;;;27.04;39.33;98947.53;5066887;28;20189;-60
2022/05/23 07:30:30;;;;;;;5.43;3.17;;;;;;;25.85;41.86;98939.53;5040136;28;20333;-60
2022/05/23 07:32:57;;;;;;;4.80;2.80;;;;;;;26.76;41.72;98958.56;5065085;28;20533;-61
2022/05/23 07:35:23;;;;;;;4.47;2.90;;;;;;;26.56;39.81;98962.16;5068169;28;20235;-61
2022/05/23 07:37:49;;;;;;;6.10;3.17;;;;;;;26.04;40.88;98972.06;5046473;28;20235;-60
2022/05/23 07:40:14;;;;;;;4.35;3.17;;;;;;;24.68;43.52;98972.69;5027419;28;20181;-60
2022/05/23 07:42:39;;;;;;;6.07;3.00;;;;;;;24.98;43.21;98953.81;5081374;28;20181;-63
2022/05/23 07:45:07;;;;;;;5.95;3.17;;;;;;;25.12;42.26;98957.25;5052853;28;20584;-60
2022/05/23 07:47:33;;;;;;;5.10;3.10;;;;;;;25.14;43.68;98957.84;5050782;28;20212;-61
2022/05/23 07:49:59;;;;;;;4.47;2.80;;;;;;;25.46;42.89;98960.59;5051323;28;20629;-59
2022/05/23 07:52:24;;;;;;;7.25;3.65;;;;;;;25.84;41.59;98957.16;5057936;28;20221;-59
2022/05/23 08:00:31;;;;;;;3.67;2.75;;;;;;;27.81;38.51;98951.47;5043255;28;20276;-60
2022/05/23 08:02:56;;;;;;;4.63;3.08;;;;;;;28.21;36.31;98950.09;5060909;28;20209;-60
2022/05/23 08:05:22;;;;;;;4.18;3.08;;;;;;;25.89;40.27;98956.53;5032732;28;20230;-60
2022/05/23 08:07:47;;;;;;;5.93;2.78;;;;;;;26.23;39.96;98955.34;5036799;28;20224;-64
2022/05/23 08:10:12;;;;;;;5.05;3.33;;;;;;;26.98;39.70;98953.69;5025418;28;20174;-62
2022/05/23 08:12:39;;;;;;;5.13;3.25;;;;;;;27.58;38.26;98952.19;5074383;28;20617;-61
2022/05/23 08:15:05;;;;;;;3.83;2.80;;;;;;;27.68;38.84;98949.81;5058139;28;20178;-61
2022/05/23 08:17:31;;;;;;;4.28;2.70;;;;;;;27.99;37.27;98957.72;5035983;28;20233;-59
2022/05/23 08:19:56;;;;;;;5.70;3.08;;;;;;;26.38;39.80;98954.19;5067401;28;20178;-61
2022/05/23 08:22:22;;;;;;;6.93;3.10;;;;;;;27.18;39.50;98955.31;5040585;28;20243;-61
2022/05/23 08:24:48;;;;;;;6.65;3.05;;;;;;;27.25;38.90;98942.00;5050834;28;20177;-60
2022/05/23 08:27:13;;;;;;;7.75;3.50;;;;;;;27.74;37.62;98942.84;5049766;28;20181;-60
2022/05/23 08:29:39;;;;;;;4.10;3.03;;;;;;;27.50;38.50;98947.22;5051775;28;20648;-60
2022/05/23 08:32:07;;;;;;;5.50;2.70;;;;;;;28.79;37.65;98940.63;5071667;28;20694;-59
2022/05/23 08:34:32;;;;;;;4.53;2.72;;;;;;;29.63;34.93;98943.84;5048795;28;20633;-60
2022/05/23 08:36:58;;;;;;;4.53;2.95;;;;;;;29.01;36.03;98933.91;5050487;28;20276;-59
2022/05/23 08:39:25;;;;;;;6.20;3.40;;;;;;;28.54;35.68;98940.81;5049361;28;20246;-61
2022/05/23 08:41:52;;;;;;;3.33;3.00;;;;;;;30.06;34.35;98936.41;5066389;28;20224;-61
2022/05/23 08:44:45;;;;;;;3.75;3.40;;;;;;;30.65;32.64;98937.84;5068239;28;20192;-59
2022/05/23 08:47:32;;;;;;;3.60;3.10;;;;;;;31.60;30.73;98944.84;5035704;28;20175;-60
2022/05/23 08:50:12;;;;;;;4.45;3.13;;;;;;;31.42;31.26;98941.47;5044323;28;20214;-60
2022/05/23 08:52:44;;;;;;;7.05;3.67;;;;;;;31.09;32.75;98918.53;5037332;28;20252;-61
2022/05/23 08:55:29;;;;;;;4.68;2.95;;;;;;;31.27;31.69;98922.69;5050194;28;20173;-59
2022/05/23 08:57:54;;;;;;;3.78;3.40;;;;;;;32.05;29.71;98938.34;5046468;28;20200;-62
2022/05/23 09:00:26;;;;;;;8.30;3.67;;;;;;;31.62;31.60;98927.59;5035536;28;20185;-60
2022/05/23 09:02:55;;;;;;;4.15;3.03;;;;;;;32.58;30.89;98932.38;5058939;28;20409;-59
2022/05/23 09:05:32;;;;;;;4.18;3.15;;;;;;;33.47;29.47;98937.81;5039733;28;20181;-60
2022/05/23 09:08:01;;;;;;;3.45;3.08;;;;;;;31.32;31.21;98934.19;5063946;28;20267;-60
2022/05/23 09:10:55;;;;;;;3.92;3.47;;;;;;;32.31;30.46;98935.91;5055078;28;20239;-61
2022/05/23 09:13:27;;;;;;;5.20;2.90;;;;;;;31.32;31.14;98931.53;5048004;28;20173;-60
2022/05/23 09:15:54;;;;;;;4.22;3.20;;;;;;;32.90;30.73;98939.47;5048149;28;20204;-62
2022/05/23 09:18:25;;;;;;;7.80;3.40;;;;;;;32.58;29.90;98941.13;5066215;28;20225;-60
2022/05/23 09:20:53;;;;;;;4.32;2.63;;;;;;;32.61;31.23;98934.50;5042285;28;20252;-60
2022/05/23 09:23:30;;;;;;;3.10;2.80;;;;;;;33.67;29.58;98937.03;5047424;28;20636;-61
2022/05/23 09:25:56;;;;;;;5.40;3.00;;;;;;;32.58;29.48;98948.34;5050541;28;20605;-60
2022/05/23 09:28:27;;;;;;;3.13;2.80;;;;;;;29.30;34.75;98935.59;5054918;28;20178;-61
2022/05/23 09:31:05;;;;;;;3.22;2.92;;;;;;;30.21;33.79;98944.59;5038722;28;20671;-59
2022/05/23 09:33:31;;;;;;;4.25;3.17;;;;;;;31.63;32.80;98937.16;5045921;28;20182;-59
2022/05/23 09:36:28;;;;;;;5.70;3.17;;;;;;;30.84;32.29;98941.03;5050064;28;20223;-58
2022/05/23 09:39:00;;;;;;;4.32;2.80;;;;;;;33.47;29.97;98924.50;5046410;28;20187;-62
2022/05/23 09:41:28;;;;;;;3.20;2.70;;;;;;;29.75;33.12;98926.06;5057532;28;20675;-76
2022/05/23 09:49:23;;;;;;;4.53;2.53;;;;;;;31.40;32.30;98906.38;5054004;28;20220;-61
2022/05/23 09:51:55;;;;;;;5.53;2.00;;;;;;;32.38;30.18;98899.25;5040928;28;20228;-61
2022/05/23 09:54:33;;;;;;;2.28;2.05;;;;;;;32.13;31.27;98899.84;5037240;28;20185;-59
2022/05/23 09:57:02;;;;;;;2.78;1.95;;;;;;;29.82;33.85;98886.16;5033125;28;20209;-59
2022/05/23 09:59:29;;;;;;;4.85;2.47;;;;;;;27.96;37.08;98894.75;5034599;28;20236;-60
2022/05/23 10:01:55;;;;;;;3.58;2.03;;;;;;;28.47;36.64;98885.38;5054389;28;20235;-60
2022/05/23 10:04:28;;;;;;;6.75;2.50;;;;;;;29.11;35.95;98881.16;5039530;28;20177;-60
2022/05/23 10:06:54;;;;;;;3.92;2.25;;;;;;;28.80;36.89;98872.59;5051644;28;20196;-60
2022/05/23 10:09:32;;;;;;;3.60;1.80;;;;;;;29.09;36.06;98876.09;5047945;28;20545;-60
2022/05/23 10:12:02;;;;;;;4.13;2.30;;;;;;;28.14;38.03;98865.59;5059811;28;20586;-61
2022/05/23 10:14:43;;;;;;;2.80;2.35;;;;;;;27.14;39.57;98865.19;5040687;28;20194;-62
2022/05/23 10:17:08;;;;;;;4.97;1.88;;;;;;;29.23;36.77;98865.25;5051688;28;20238;-60
2022/05/23 10:19:36;;;;;;;3.85;2.20;;;;;;;30.19;34.72;98858.38;5054465;28;20211;-61
2022/05/23 10:22:15;;;;;;;6.28;2.55;;;;;;;31.30;33.05;98845.19;5046205;28;20232;-63
2022/05/23 10:24:57;;;;;;;3.45;2.00;;;;;;;29.27;36.11;98856.59;5054525;28;20184;-60
2022/05/23 10:27:46;;;;;;;3.42;2.38;;;;;;;30.39;34.53;98861.34;5051939;28;20177;-61
2022/05/23 10:30:15;;;;;;;3.03;2.40;;;;;;;30.04;35.18;98846.53;5047851;28;20181;-61
2022/05/23 10:32:48;;;;;;;4.25;2.40;;;;;;;31.00;33.05;98839.28;5062745;28;20182;-60
2022/05/23 10:35:38;;;;;;;7.05;2.13;;;;;;;30.42;34.92;98838.81;5053541;28;20268;-60
2022/05/23 10:43:52;;;;;;;4.75;2.85;;;;;;;26.38;44.38;98812.66;5046653;28;20240;-60
2022/05/23 10:46:18;;;;;;;3.15;2.38;;;;;;;26.54;45.77;98813.88;5068403;28;20177;-62
2022/05/23 10:48:56;;;;;;;3.85;3.45;;;;;;;25.39;46.79;98807.97;5052122;28;20212;-62
2022/05/23 10:51:48;;;;;;;5.28;3.15;;;;;;;25.55;48.03;98795.31;5059634;28;20274;-63
2022/05/23 10:54:44;;;;;;;3.72;3.17;;;;;;;25.80;47.81;98795.34;5054380;28;20194;-62
2022/05/23 10:57:25;;;;;;;5.40;3.20;;;;;;;25.30;46.95;98790.78;5053154;28;20616;-62
2022/05/23 11:00:02;;;;;;;5.55;3.83;;;;;;;24.52;51.08;98781.19;5062395;28;20178;-61
2022/05/23 11:02:54;;;;;;;7.18;3.97;;;;;;;24.29;52.30;98757.00;4996080;28;20685;-62
2022/05/23 11:05:38;;;;;;;6.65;3.85;;;;;;;24.55;52.08;98751.84;5046527;28;20188;-61
2022/05/23 11:08:11;;;;;;;6.80;4.03;;;;;;;24.23;54.82;98754.41;5047246;28;20549;-62
2022/05/23 11:10:43;;;;;;;6.97;3.30;;;;;;;24.57;52.66;98752.47;5032126;28;20233;-63
2022/05/23 11:13:25;;;;;;;6.47;3.58;;;;;;;24.45;53.15;98747.84;5016277;28;20265;-64
2022/05/23 11:16:08;;;;;;;9.63;3.70;;;;;;;24.46;52.37;98761.78;5029318;28;20282;-61
2022/05/23 11:18:45;;;;;;;5.13;3.20;;;;;;;24.35;54.05;98768.50;5055768;28;20253;-62
2022/05/23 11:21:18;;;;;;;8.33;3.23;;;;;;;24.90;54.16;98741.81;5070987;28;20229;-61
2022/05/23 11:23:50;;;;;;;4.82;3.42;;;;;;;24.98;52.18;98748.66;5051385;28;20189;-62
2022/05/23 11:26:30;;;;;;;3.80;2.63;;;;;;;25.21;50.30;98747.31;5047667;28;20173;-61
2022/05/23 11:34:44;;;;;;;5.97;3.00;;;;;;;24.97;53.55;98753.13;5046264;28;20231;-60
2022/05/23 11:38:01;;;;;;;4.00;2.28;;;;;;;25.38;53.66;98758.16;5041879;28;20201;-61
2022/05/23 11:40:06;;;;;;;4.53;2.57;;;;;;;25.45;52.73;98769.44;5032828;28;20288;-61
2022/05/23 11:42:59;;;;;;;7.05;2.78;;;;;;;25.01;53.03;98769.28;5031964;28;20255;-60
2022/05/23 11:46:00;;;;;;;4.63;3.03;;;;;;;25.50;53.48;98768.81;5048530;28;20214;-62
2022/05/23 11:48:36;;;;;;;4.85;2.90;;;;;;;25.27;53.26;98760.44;5039403;28;20245;-60
2022/05/23 11:51:25;;;;;;;4.47;3.00;;;;;;;24.43;56.85;98757.75;5056630;28;20323;-63
2022/05/23 11:53:56;;;;;;;3.92;2.97;;;;;;;24.98;57.04;98746.03;5045242;28;20193;-61
2022/05/23 11:56:35;;;;;;;11.32;4.32;;;;;;;24.63;56.50;98743.75;5020462;28;20611;-61
2022/05/23 11:59:02;;;;;;;5.28;3.17;;;;;;;25.54;55.10;98728.69;5045261;28;20186;-62
2022/05/23 12:01:30;;;;;;;5.07;3.72;;;;;;;24.73;56.50;98725.72;5057464;28;20318;-64
2022/05/23 12:03:56;;;;;;;5.88;3.67;;;;;;;25.14;57.24;98721.03;5055637;28;20638;-62
2022/05/23 12:06:24;;;;;;;7.25;3.40;;;;;;;25.41;54.96;98708.53;5051535;28;20346;-63
2022/05/23 12:09:02;;;;;;;7.20;3.92;;;;;;;24.57;58.09;98711.22;5047110;28;20185;-63
2022/05/23 12:11:33;;;;;;;4.63;3.40;;;;;;;24.79;57.60;98701.22;5044124;28;20693;-64
2022/05/23 12:14:20;;;;;;;6.07;3.22;;;;;;;24.72;58.05;98702.28;5051166;28;20174;-64
2022/05/23 12:16:54;;;;;;;4.70;3.47;;;;;;;24.55;57.57;98700.09;5031696;28;20198;-61
2022/05/23 12:19:33;;;;;;;7.40;4.28;;;;;;;24.31;59.70;98705.06;5027318;28;20257;-62
2022/05/23 12:22:36;;;;;;;7.23;4.13;;;;;;;24.72;59.82;98694.38;5030739;28;20217;-62
2022/05/23 12:25:07;;;;;;;5.33;3.93;;;;;;;24.47;60.76;98708.22;5024077;28;20178;-61
2022/05/23 12:27:33;;;;;;;5.07;3.37;;;;;;;24.74;60.96;98711.56;5029185;28;20181;-63
2022/05/23 12:30:16;;;;;;;4.93;4.00;;;;;;;24.75;58.83;98696.59;5016284;28;20231;-63
2022/05/23 12:32:43;;;;;;;9.33;3.40;;;;;;;24.72;60.86;98697.00;5040206;28;20606;-60
2022/05/23 12:35:08;;;;;;;6.47;3.80;;;;;;;24.87;60.79;98701.97;5049900;28;20269;-62
2022/05/23 12:37:41;;;;;;;4.70;4.15;;;;;;;24.30;62.81;98698.19;5050561;28;20291;-61
2022/05/23 12:40:22;;;;;;;5.50;3.40;;;;;;;24.29;64.31;98701.03;5051635;28;20181;-62
2022/05/23 12:43:16;;;;;;;6.00;3.40;;;;;;;24.34;64.26;98688.06;5056592;28;20285;-62